sensor_id;sensor_type;location;lat;lon;timestamp;pressure;altitude;pressure_sealevel;temperature;humidity
76853;BME280;65825;52.232;10.566;2024-01-16T00:02:04;99426.78;;;3.04;76.74
76853;BME280;65825;52.232;10.566;2024-01-16T00:04:30;99421.28;;;3.16;76.47
76853;BME280;65825;52.232;10.566;2024-01-16T00:06:56;99406.97;;;2.97;75.83
76853;BME280;65825;52.232;10.566;2024-01-16T00:09:21;99432.91;;;3.03;75.24
76853;BME280;65825;52.232;10.566;2024-01-16T00:11:47;99435.59;;;2.99;75.56
76853;BME280;65825;52.232;10.566;2024-01-16T00:14:12;99445.06;;;3.03;75.55
76853;BME280;65825;52.232;10.566;2024-01-16T00:16:44;99437.41;;;2.95;75.59
76853;BME280;65825;52.232;10.566;2024-01-16T00:19:13;99449.91;;;3.21;75.39
76853;BME280;65825;52.232;10.566;2024-01-16T00:21:39;99457.72;;;3.21;75.31
76853;BME280;65825;52.232;10.566;2024-01-16T00:24:05;99455.88;;;3.26;75.27
76853;BME280;65825;52.232;10.566;2024-01-16T00:26:30;99458.91;;;3.05;74.88
76853;BME280;65825;52.232;10.566;2024-01-16T00:28:55;99468.94;;;3.24;74.50
76853;BME280;65825;52.232;10.566;2024-01-16T00:31:20;99459.63;;;3.13;74.11
76853;BME280;65825;52.232;10.566;2024-01-16T00:33:46;99475.41;;;3.07;74.80
76853;BME280;65825;52.232;10.566;2024-01-16T00:36:11;99470.63;;;3.27;74.59
76853;BME280;65825;52.232;10.566;2024-01-16T00:38:36;99473.47;;;3.15;73.90
76853;BME280;65825;52.232;10.566;2024-01-16T00:41:01;99473.63;;;3.07;74.27
76853;BME280;65825;52.232;10.566;2024-01-16T00:43:26;99464.81;;;3.14;73.71
76853;BME280;65825;52.232;10.566;2024-01-16T00:45:52;99459.84;;;3.02;73.52
76853;BME280;65825;52.232;10.566;2024-01-16T00:48:17;99454.69;;;3.01;74.28
76853;BME280;65825;52.232;10.566;2024-01-16T00:50:44;99466.69;;;3.06;73.72
76853;BME280;65825;52.232;10.566;2024-01-16T00:53:11;99471.91;;;3.06;73.06
76853;BME280;65825;52.232;10.566;2024-01-16T00:55:36;99471.94;;;3.05;73.28
76853;BME280;65825;52.232;10.566;2024-01-16T00:58:01;99479.06;;;2.98;74.17
76853;BME280;65825;52.232;10.566;2024-01-16T01:00:27;99476.53;;;2.94;75.18
76853;BME280;65825;52.232;10.566;2024-01-16T01:02:52;99471.28;;;2.95;74.84
76853;BME280;65825;52.232;10.566;2024-01-16T01:05:17;99473.06;;;2.93;74.51
76853;BME280;65825;52.232;10.566;2024-01-16T01:07:43;99478.16;;;2.99;74.24
76853;BME280;65825;52.232;10.566;2024-01-16T01:10:09;99484.25;;;3.00;73.82
76853;BME280;65825;52.232;10.566;2024-01-16T01:12:34;99498.75;;;3.11;73.69
76853;BME280;65825;52.232;10.566;2024-01-16T01:14:59;99500.06;;;2.91;73.21
76853;BME280;65825;52.232;10.566;2024-01-16T01:17:24;99507.56;;;3.06;73.32
76853;BME280;65825;52.232;10.566;2024-01-16T01:19:50;99519.00;;;2.99;74.70
76853;BME280;65825;52.232;10.566;2024-01-16T01:22:16;99527.84;;;2.92;75.58
76853;BME280;65825;52.232;10.566;2024-01-16T01:24:41;99534.00;;;2.88;76.33
76853;BME280;65825;52.232;10.566;2024-01-16T01:27:06;99533.72;;;3.01;76.30
76853;BME280;65825;52.232;10.566;2024-01-16T01:29:31;99545.16;;;2.96;76.15
76853;BME280;65825;52.232;10.566;2024-01-16T01:31:57;99539.97;;;2.93;75.13
76853;BME280;65825;52.232;10.566;2024-01-16T01:34:22;99553.63;;;3.05;74.88
76853;BME280;65825;52.232;10.566;2024-01-16T01:36:47;99556.47;;;2.95;75.40
76853;BME280;65825;52.232;10.566;2024-01-16T01:39:13;99553.16;;;2.84;75.20
76853;BME280;65825;52.232;10.566;2024-01-16T01:41:38;99558.25;;;2.91;74.20
76853;BME280;65825;52.232;10.566;2024-01-16T01:44:05;99547.16;;;2.80;74.36
76853;BME280;65825;52.232;10.566;2024-01-16T01:46:31;99557.22;;;3.00;73.47
76853;BME280;65825;52.232;10.566;2024-01-16T01:48:57;99556.47;;;2.93;73.08
76853;BME280;65825;52.232;10.566;2024-01-16T01:51:23;99550.34;;;2.96;72.05
76853;BME280;65825;52.232;10.566;2024-01-16T01:53:50;99553.44;;;3.16;72.22
76853;BME280;65825;52.232;10.566;2024-01-16T01:56:18;99560.63;;;3.03;71.44
76853;BME280;65825;52.232;10.566;2024-01-16T01:58:46;99566.72;;;3.02;72.00
76853;BME280;65825;52.232;10.566;2024-01-16T02:01:12;99567.41;;;3.12;71.20
76853;BME280;65825;52.232;10.566;2024-01-16T02:03:41;99568.47;;;3.02;70.71
76853;BME280;65825;52.232;10.566;2024-01-16T02:06:07;99565.22;;;2.91;72.22
76853;BME280;65825;52.232;10.566;2024-01-16T02:08:32;99570.34;;;2.95;72.46
76853;BME280;65825;52.232;10.566;2024-01-16T02:10:58;99565.38;;;2.83;73.15
76853;BME280;65825;52.232;10.566;2024-01-16T02:13:23;99566.19;;;2.85;73.09
76853;BME280;65825;52.232;10.566;2024-01-16T02:15:49;99571.22;;;2.96;72.80
76853;BME280;65825;52.232;10.566;2024-01-16T02:18:15;99569.28;;;3.05;72.47
76853;BME280;65825;52.232;10.566;2024-01-16T02:20:41;99570.31;;;2.97;72.70
76853;BME280;65825;52.232;10.566;2024-01-16T02:23:07;99572.09;;;2.95;72.06
76853;BME280;65825;52.232;10.566;2024-01-16T02:25:32;99585.22;;;2.89;72.73
76853;BME280;65825;52.232;10.566;2024-01-16T02:27:59;99585.06;;;2.98;72.35
76853;BME280;65825;52.232;10.566;2024-01-16T02:30:24;99593.72;;;3.00;72.48
76853;BME280;65825;52.232;10.566;2024-01-16T02:32:50;99591.19;;;2.95;71.95
76853;BME280;65825;52.232;10.566;2024-01-16T02:35:15;99590.03;;;3.10;71.71
76853;BME280;65825;52.232;10.566;2024-01-16T02:37:42;99608.66;;;2.90;72.22
76853;BME280;65825;52.232;10.566;2024-01-16T02:40:07;99602.78;;;2.79;72.88
76853;BME280;65825;52.232;10.566;2024-01-16T02:42:34;99591.31;;;2.88;72.65
76853;BME280;65825;52.232;10.566;2024-01-16T02:45:00;99600.94;;;2.84;72.43
76853;BME280;65825;52.232;10.566;2024-01-16T02:47:25;99601.00;;;2.81;72.13
76853;BME280;65825;52.232;10.566;2024-01-16T02:49:50;99610.03;;;2.64;73.25
76853;BME280;65825;52.232;10.566;2024-01-16T02:52:16;99622.16;;;2.65;72.87
76853;BME280;65825;52.232;10.566;2024-01-16T02:54:41;99613.19;;;2.79;73.19
76853;BME280;65825;52.232;10.566;2024-01-16T02:57:06;99620.34;;;2.68;73.02
76853;BME280;65825;52.232;10.566;2024-01-16T02:59:31;99623.84;;;2.69;73.24
76853;BME280;65825;52.232;10.566;2024-01-16T03:01:57;99630.66;;;2.76;71.60
76853;BME280;65825;52.232;10.566;2024-01-16T03:04:22;99633.38;;;2.70;72.06
76853;BME280;65825;52.232;10.566;2024-01-16T03:06:48;99623.06;;;2.62;71.43
76853;BME280;65825;52.232;10.566;2024-01-16T03:09:13;99645.84;;;2.51;71.85
76853;BME280;65825;52.232;10.566;2024-01-16T03:11:38;99656.00;;;2.66;71.48
76853;BME280;65825;52.232;10.566;2024-01-16T03:14:05;99652.53;;;2.66;71.68
76853;BME280;65825;52.232;10.566;2024-01-16T03:16:31;99655.13;;;2.66;71.69
76853;BME280;65825;52.232;10.566;2024-01-16T03:18:57;99651.06;;;2.50;72.66
76853;BME280;65825;52.232;10.566;2024-01-16T03:21:22;99651.75;;;2.59;72.24
76853;BME280;65825;52.232;10.566;2024-01-16T03:23:47;99663.75;;;2.69;72.43
76853;BME280;65825;52.232;10.566;2024-01-16T03:26:13;99657.91;;;2.55;72.66
76853;BME280;65825;52.232;10.566;2024-01-16T03:28:39;99661.13;;;2.71;72.30
76853;BME280;65825;52.232;10.566;2024-01-16T03:31:04;99675.94;;;2.69;72.62
76853;BME280;65825;52.232;10.566;2024-01-16T03:33:30;99673.59;;;2.51;72.69
76853;BME280;65825;52.232;10.566;2024-01-16T03:35:55;99675.06;;;2.68;72.10
76853;BME280;65825;52.232;10.566;2024-01-16T03:38:20;99673.13;;;2.81;71.63
76853;BME280;65825;52.232;10.566;2024-01-16T03:40:45;99671.78;;;2.56;71.83
76853;BME280;65825;52.232;10.566;2024-01-16T03:43:11;99681.09;;;2.70;71.50
76853;BME280;65825;52.232;10.566;2024-01-16T03:45:36;99691.63;;;2.64;70.77
76853;BME280;65825;52.232;10.566;2024-01-16T03:48:02;99701.47;;;2.44;71.62
76853;BME280;65825;52.232;10.566;2024-01-16T03:50:28;99693.53;;;2.55;71.46
76853;BME280;65825;52.232;10.566;2024-01-16T03:52:53;99706.44;;;2.62;71.40
76853;BME280;65825;52.232;10.566;2024-01-16T03:55:18;99702.94;;;2.62;71.08
76853;BME280;65825;52.232;10.566;2024-01-16T03:57:44;99698.75;;;2.52;71.37
76853;BME280;65825;52.232;10.566;2024-01-16T04:00:11;99704.78;;;2.57;71.38
76853;BME280;65825;52.232;10.566;2024-01-16T04:02:37;99702.81;;;2.72;71.04
76853;BME280;65825;52.232;10.566;2024-01-16T04:05:03;99704.59;;;2.69;70.91
76853;BME280;65825;52.232;10.566;2024-01-16T04:07:28;99706.34;;;2.67;71.22
76853;BME280;65825;52.232;10.566;2024-01-16T04:09:54;99716.06;;;2.57;71.15
76853;BME280;65825;52.232;10.566;2024-01-16T04:12:19;99719.56;;;2.55;71.12
76853;BME280;65825;52.232;10.566;2024-01-16T04:14:44;99716.97;;;2.53;71.35
76853;BME280;65825;52.232;10.566;2024-01-16T04:17:09;99718.34;;;2.78;70.51
76853;BME280;65825;52.232;10.566;2024-01-16T04:19:35;99723.59;;;2.74;70.88
76853;BME280;65825;52.232;10.566;2024-01-16T04:22:01;99698.53;;;2.67;70.43
76853;BME280;65825;52.232;10.566;2024-01-16T04:24:27;99721.41;;;2.47;71.26
76853;BME280;65825;52.232;10.566;2024-01-16T04:26:52;99722.28;;;2.47;71.48
76853;BME280;65825;52.232;10.566;2024-01-16T04:29:17;99703.94;;;2.56;70.84
76853;BME280;65825;52.232;10.566;2024-01-16T04:31:43;99726.47;;;2.57;70.86
76853;BME280;65825;52.232;10.566;2024-01-16T04:34:08;99722.28;;;2.47;71.60
76853;BME280;65825;52.232;10.566;2024-01-16T04:36:33;99730.91;;;2.51;71.77
76853;BME280;65825;52.232;10.566;2024-01-16T04:38:58;99730.69;;;2.66;71.01
76853;BME280;65825;52.232;10.566;2024-01-16T04:41:24;99727.59;;;2.96;71.11
76853;BME280;65825;52.232;10.566;2024-01-16T04:43:49;99718.56;;;2.63;70.88
76853;BME280;65825;52.232;10.566;2024-01-16T04:46:15;99726.47;;;2.59;71.75
76853;BME280;65825;52.232;10.566;2024-01-16T04:48:41;99728.06;;;2.67;71.29
76853;BME280;65825;52.232;10.566;2024-01-16T04:51:06;99735.06;;;2.64;71.07
76853;BME280;65825;52.232;10.566;2024-01-16T04:53:32;99710.19;;;2.43;71.40
76853;BME280;65825;52.232;10.566;2024-01-16T04:55:58;99725.72;;;2.49;71.29
76853;BME280;65825;52.232;10.566;2024-01-16T04:58:23;99723.91;;;2.54;71.37
76853;BME280;65825;52.232;10.566;2024-01-16T05:00:48;99731.03;;;2.43;71.75
76853;BME280;65825;52.232;10.566;2024-01-16T05:03:13;99725.34;;;2.75;71.47
76853;BME280;65825;52.232;10.566;2024-01-16T05:05:39;99726.50;;;2.56;71.73
76853;BME280;65825;52.232;10.566;2024-01-16T05:08:04;99721.31;;;2.54;71.61
76853;BME280;65825;52.232;10.566;2024-01-16T05:10:29;99714.19;;;2.65;71.51
76853;BME280;65825;52.232;10.566;2024-01-16T05:12:56;99712.41;;;2.69;71.12
76853;BME280;65825;52.232;10.566;2024-01-16T05:15:21;99728.91;;;2.68;71.38
76853;BME280;65825;52.232;10.566;2024-01-16T05:17:46;99729.91;;;2.61;71.68
76853;BME280;65825;52.232;10.566;2024-01-16T05:20:11;99727.03;;;2.77;71.46
76853;BME280;65825;52.232;10.566;2024-01-16T05:22:37;99729.94;;;2.58;71.83
76853;BME280;65825;52.232;10.566;2024-01-16T05:25:04;99731.47;;;2.71;71.46
76853;BME280;65825;52.232;10.566;2024-01-16T05:27:29;99727.59;;;2.41;71.85
76853;BME280;65825;52.232;10.566;2024-01-16T05:29:55;99734.53;;;2.39;72.03
76853;BME280;65825;52.232;10.566;2024-01-16T05:32:20;99717.88;;;2.51;71.78
76853;BME280;65825;52.232;10.566;2024-01-16T05:34:45;99729.50;;;2.30;72.19
76853;BME280;65825;52.232;10.566;2024-01-16T05:37:11;99733.78;;;2.33;72.32
76853;BME280;65825;52.232;10.566;2024-01-16T05:39:36;99733.81;;;2.30;72.16
76853;BME280;65825;52.232;10.566;2024-01-16T05:42:01;99733.84;;;2.27;72.19
76853;BME280;65825;52.232;10.566;2024-01-16T05:44:27;99731.41;;;2.16;72.50
76853;BME280;65825;52.232;10.566;2024-01-16T05:46:52;99736.50;;;2.24;72.34
76853;BME280;65825;52.232;10.566;2024-01-16T05:49:18;99736.19;;;2.46;72.04
76853;BME280;65825;52.232;10.566;2024-01-16T05:51:43;99742.53;;;2.29;71.94
76853;BME280;65825;52.232;10.566;2024-01-16T05:54:08;99742.50;;;2.30;72.13
76853;BME280;65825;52.232;10.566;2024-01-16T05:56:34;99750.44;;;2.20;72.08
76853;BME280;65825;52.232;10.566;2024-01-16T05:58:59;99741.44;;;2.43;71.57
76853;BME280;65825;52.232;10.566;2024-01-16T06:01:25;99751.88;;;2.42;71.21
76853;BME280;65825;52.232;10.566;2024-01-16T06:03:50;99749.38;;;2.34;71.26
76853;BME280;65825;52.232;10.566;2024-01-16T06:06:16;99744.06;;;2.42;71.25
76853;BME280;65825;52.232;10.566;2024-01-16T06:08:41;99755.44;;;2.36;70.76
76853;BME280;65825;52.232;10.566;2024-01-16T06:11:07;99755.59;;;2.24;70.74
76853;BME280;65825;52.232;10.566;2024-01-16T06:13:32;99760.97;;;2.12;71.73
76853;BME280;65825;52.232;10.566;2024-01-16T06:15:58;99762.44;;;2.33;71.54
76853;BME280;65825;52.232;10.566;2024-01-16T06:18:23;99760.84;;;2.21;71.62
76853;BME280;65825;52.232;10.566;2024-01-16T06:20:48;99755.66;;;2.20;71.96
76853;BME280;65825;52.232;10.566;2024-01-16T06:23:13;99766.81;;;2.29;71.81
76853;BME280;65825;52.232;10.566;2024-01-16T06:25:39;99761.69;;;2.22;71.75
76853;BME280;65825;52.232;10.566;2024-01-16T06:28:05;99758.09;;;2.32;71.20
76853;BME280;65825;52.232;10.566;2024-01-16T06:30:30;99752.31;;;2.10;71.64
76853;BME280;65825;52.232;10.566;2024-01-16T06:32:55;99752.84;;;2.36;71.46
76853;BME280;65825;52.232;10.566;2024-01-16T06:35:21;99751.22;;;2.28;71.36
76853;BME280;65825;52.232;10.566;2024-01-16T06:37:48;99758.97;;;2.32;71.32
76853;BME280;65825;52.232;10.566;2024-01-16T06:40:13;99754.69;;;2.27;71.36
76853;BME280;65825;52.232;10.566;2024-01-16T06:42:39;99757.28;;;2.28;71.32
76853;BME280;65825;52.232;10.566;2024-01-16T06:45:04;99759.16;;;2.17;71.36
76853;BME280;65825;52.232;10.566;2024-01-16T06:47:30;99749.66;;;2.13;71.26
76853;BME280;65825;52.232;10.566;2024-01-16T06:49:55;99762.63;;;2.18;71.20
76853;BME280;65825;52.232;10.566;2024-01-16T06:52:21;99756.53;;;2.19;71.01
76853;BME280;65825;52.232;10.566;2024-01-16T06:54:46;99749.63;;;2.18;71.05
76853;BME280;65825;52.232;10.566;2024-01-16T06:57:12;99765.34;;;2.09;71.25
76853;BME280;65825;52.232;10.566;2024-01-16T06:59:37;99768.84;;;2.06;70.76
76853;BME280;65825;52.232;10.566;2024-01-16T07:02:02;99770.63;;;2.04;71.11
76853;BME280;65825;52.232;10.566;2024-01-16T07:04:28;99780.00;;;2.16;71.17
76853;BME280;65825;52.232;10.566;2024-01-16T07:06:54;99782.69;;;2.10;71.70
76853;BME280;65825;52.232;10.566;2024-01-16T07:09:19;99785.34;;;2.05;71.25
76853;BME280;65825;52.232;10.566;2024-01-16T07:11:46;99776.50;;;2.17;71.15
76853;BME280;65825;52.232;10.566;2024-01-16T07:14:11;99783.41;;;2.22;71.23
76853;BME280;65825;52.232;10.566;2024-01-16T07:16:37;99787.97;;;2.02;71.10
76853;BME280;65825;52.232;10.566;2024-01-16T07:19:02;99786.06;;;2.18;71.18
76853;BME280;65825;52.232;10.566;2024-01-16T07:21:27;99787.91;;;2.08;71.11
76853;BME280;65825;52.232;10.566;2024-01-16T07:23:53;99799.19;;;2.09;71.06
76853;BME280;65825;52.232;10.566;2024-01-16T07:26:18;99791.28;;;2.16;71.06
76853;BME280;65825;52.232;10.566;2024-01-16T07:28:44;99801.72;;;2.15;70.40
76853;BME280;65825;52.232;10.566;2024-01-16T07:31:09;99801.66;;;2.19;70.90
76853;BME280;65825;52.232;10.566;2024-01-16T07:33:35;99805.84;;;2.31;70.64
76853;BME280;65825;52.232;10.566;2024-01-16T07:36:00;99800.84;;;2.14;70.54
76853;BME280;65825;52.232;10.566;2024-01-16T07:38:25;99785.28;;;2.11;70.24
76853;BME280;65825;52.232;10.566;2024-01-16T07:40:50;99801.53;;;2.28;70.37
76853;BME280;65825;52.232;10.566;2024-01-16T07:43:16;99804.94;;;2.35;70.09
76853;BME280;65825;52.232;10.566;2024-01-16T07:45:41;99805.03;;;2.27;70.29
76853;BME280;65825;52.232;10.566;2024-01-16T07:48:06;99797.22;;;2.26;70.26
76853;BME280;65825;52.232;10.566;2024-01-16T07:50:33;99804.91;;;2.36;70.20
76853;BME280;65825;52.232;10.566;2024-01-16T07:52:58;99792.88;;;2.28;70.25
76853;BME280;65825;52.232;10.566;2024-01-16T07:55:23;99802.31;;;2.35;70.00
76853;BME280;65825;52.232;10.566;2024-01-16T07:57:49;99803.22;;;2.32;70.38
76853;BME280;65825;52.232;10.566;2024-01-16T08:00:14;99799.81;;;2.27;70.34
76853;BME280;65825;52.232;10.566;2024-01-16T08:02:40;99806.56;;;2.43;70.75
76853;BME280;65825;52.232;10.566;2024-01-16T08:05:06;99807.28;;;2.53;70.34
76853;BME280;65825;52.232;10.566;2024-01-16T08:07:32;99797.75;;;2.50;70.54
76853;BME280;65825;52.232;10.566;2024-01-16T08:09:57;99804.06;;;2.34;71.21
76853;BME280;65825;52.232;10.566;2024-01-16T08:12:22;99804.72;;;2.51;71.24
76853;BME280;65825;52.232;10.566;2024-01-16T08:14:47;99808.75;;;2.72;71.16
76853;BME280;65825;52.232;10.566;2024-01-16T08:17:13;99805.41;;;2.64;70.84
76853;BME280;65825;52.232;10.566;2024-01-16T08:19:38;99816.69;;;2.64;71.18
76853;BME280;65825;52.232;10.566;2024-01-16T08:22:03;99814.13;;;2.61;70.81
76853;BME280;65825;52.232;10.566;2024-01-16T08:24:29;99816.66;;;2.67;71.07
76853;BME280;65825;52.232;10.566;2024-01-16T08:26:54;99809.78;;;2.62;70.83
76853;BME280;65825;52.232;10.566;2024-01-16T08:29:22;99813.44;;;2.49;70.87
76853;BME280;65825;52.232;10.566;2024-01-16T08:31:47;99811.16;;;2.85;70.16
76853;BME280;65825;52.232;10.566;2024-01-16T08:34:12;99810.47;;;2.73;70.23
76853;BME280;65825;52.232;10.566;2024-01-16T08:36:38;99805.22;;;2.77;70.28
76853;BME280;65825;52.232;10.566;2024-01-16T08:39:03;99813.09;;;2.73;69.94
76853;BME280;65825;52.232;10.566;2024-01-16T08:41:28;99812.16;;;2.78;69.51
76853;BME280;65825;52.232;10.566;2024-01-16T08:43:54;99813.47;;;3.05;68.61
76853;BME280;65825;52.232;10.566;2024-01-16T08:46:19;99814.22;;;3.13;68.71
76853;BME280;65825;52.232;10.566;2024-01-16T08:48:45;99816.38;;;2.84;69.20
76853;BME280;65825;52.232;10.566;2024-01-16T08:51:11;99814.38;;;3.02;68.76
76853;BME280;65825;52.232;10.566;2024-01-16T08:53:37;99813.44;;;3.08;67.68
76853;BME280;65825;52.232;10.566;2024-01-16T08:56:02;99815.44;;;2.91;68.42
76853;BME280;65825;52.232;10.566;2024-01-16T08:58:27;99816.22;;;2.97;68.31
76853;BME280;65825;52.232;10.566;2024-01-16T09:00:53;99818.31;;;3.27;67.75
76853;BME280;65825;52.232;10.566;2024-01-16T09:03:18;99816.91;;;3.08;67.61
76853;BME280;65825;52.232;10.566;2024-01-16T09:05:43;99827.34;;;3.08;67.54
76853;BME280;65825;52.232;10.566;2024-01-16T09:08:08;99806.13;;;5.01;72.68
76853;BME280;65825;52.232;10.566;2024-01-16T09:10:34;99809.69;;;6.00;64.82
76853;BME280;65825;52.232;10.566;2024-01-16T09:12:59;99819.41;;;5.97;59.71
76853;BME280;65825;52.232;10.566;2024-01-16T09:15:24;99820.56;;;6.17;59.63
76853;BME280;65825;52.232;10.566;2024-01-16T09:17:50;99827.69;;;5.79;58.78
76853;BME280;65825;52.232;10.566;2024-01-16T09:20:15;99820.56;;;4.80;61.24
76853;BME280;65825;52.232;10.566;2024-01-16T09:22:40;99824.16;;;4.34;61.87
76853;BME280;65825;52.232;10.566;2024-01-16T09:25:06;99833.59;;;3.97;63.81
76853;BME280;65825;52.232;10.566;2024-01-16T09:27:31;99827.66;;;3.90;63.61
76853;BME280;65825;52.232;10.566;2024-01-16T09:29:57;99822.59;;;3.81;64.25
76853;BME280;65825;52.232;10.566;2024-01-16T09:32:22;99824.59;;;3.66;64.55
76853;BME280;65825;52.232;10.566;2024-01-16T09:34:48;99829.03;;;3.62;66.04
76853;BME280;65825;52.232;10.566;2024-01-16T09:37:13;99826.56;;;3.55;65.82
76853;BME280;65825;52.232;10.566;2024-01-16T09:39:40;99816.09;;;3.56;65.17
76853;BME280;65825;52.232;10.566;2024-01-16T09:42:06;99823.28;;;3.91;64.59
76853;BME280;65825;52.232;10.566;2024-01-16T09:44:31;99821.53;;;4.34;64.10
76853;BME280;65825;52.232;10.566;2024-01-16T09:46:57;99821.75;;;3.79;63.94
76853;BME280;65825;52.232;10.566;2024-01-16T09:49:23;99830.28;;;3.89;64.80
76853;BME280;65825;52.232;10.566;2024-01-16T09:51:49;99834.47;;;3.99;64.25
76853;BME280;65825;52.232;10.566;2024-01-16T09:54:14;99831.84;;;3.99;64.48
76853;BME280;65825;52.232;10.566;2024-01-16T09:56:42;99821.50;;;4.37;63.50
76853;BME280;65825;52.232;10.566;2024-01-16T09:59:09;99829.97;;;4.87;62.94
76853;BME280;65825;52.232;10.566;2024-01-16T10:01:36;99826.31;;;4.56;62.16
76853;BME280;65825;52.232;10.566;2024-01-16T10:04:02;99836.63;;;5.02;62.17
76853;BME280;65825;52.232;10.566;2024-01-16T10:06:28;99830.59;;;4.59;61.94
76853;BME280;65825;52.232;10.566;2024-01-16T10:08:54;99832.09;;;4.70;61.94
76853;BME280;65825;52.232;10.566;2024-01-16T10:11:20;99833.38;;;4.51;62.39
76853;BME280;65825;52.232;10.566;2024-01-16T10:13:45;99833.38;;;4.51;62.99
76853;BME280;65825;52.232;10.566;2024-01-16T10:16:11;99848.34;;;4.01;63.34
76853;BME280;65825;52.232;10.566;2024-01-16T10:18:36;99837.84;;;4.04;63.63
76853;BME280;65825;52.232;10.566;2024-01-16T10:21:03;99835.66;;;4.25;63.50
76853;BME280;65825;52.232;10.566;2024-01-16T10:23:30;99840.88;;;4.25;62.47
76853;BME280;65825;52.232;10.566;2024-01-16T10:26:05;99852.97;;;4.31;62.73
76853;BME280;65825;52.232;10.566;2024-01-16T10:28:31;99851.19;;;4.33;61.97
76853;BME280;65825;52.232;10.566;2024-01-16T10:31:02;99845.59;;;4.90;61.79
76853;BME280;65825;52.232;10.566;2024-01-16T10:33:27;99840.44;;;4.86;61.60
76853;BME280;65825;52.232;10.566;2024-01-16T10:36:10;99839.31;;;4.99;60.68
76853;BME280;65825;52.232;10.566;2024-01-16T10:38:36;99841.56;;;5.14;60.55
76853;BME280;65825;52.232;10.566;2024-01-16T10:41:16;99838.94;;;5.14;60.49
76853;BME280;65825;52.232;10.566;2024-01-16T10:43:42;99839.56;;;5.25;60.35
76853;BME280;65825;52.232;10.566;2024-01-16T10:46:17;99840.97;;;5.03;60.51
76853;BME280;65825;52.232;10.566;2024-01-16T10:48:59;99844.81;;;4.87;60.49
76853;BME280;65825;52.232;10.566;2024-01-16T10:51:26;99847.28;;;4.53;63.08
76853;BME280;65825;52.232;10.566;2024-01-16T10:53:57;99841.22;;;4.51;62.37
76853;BME280;65825;52.232;10.566;2024-01-16T10:56:23;99843.03;;;4.48;63.26
76853;BME280;65825;52.232;10.566;2024-01-16T10:58:57;99837.63;;;4.57;62.06
76853;BME280;65825;52.232;10.566;2024-01-16T11:01:28;99832.91;;;4.31;62.82
76853;BME280;65825;52.232;10.566;2024-01-16T11:03:55;99836.69;;;4.59;62.35
76853;BME280;65825;52.232;10.566;2024-01-16T11:06:22;99839.16;;;4.67;62.50
76853;BME280;65825;52.232;10.566;2024-01-16T11:08:48;99828.22;;;4.88;62.25
76853;BME280;65825;52.232;10.566;2024-01-16T11:11:15;99838.56;;;4.54;62.24
76853;BME280;65825;52.232;10.566;2024-01-16T11:13:40;99832.69;;;4.43;62.74
76853;BME280;65825;52.232;10.566;2024-01-16T11:16:10;99835.63;;;4.69;62.23
76853;BME280;65825;52.232;10.566;2024-01-16T11:18:36;99846.34;;;4.95;62.86
76853;BME280;65825;52.232;10.566;2024-01-16T11:21:04;99855.34;;;4.82;62.61
76853;BME280;65825;52.232;10.566;2024-01-16T11:23:30;99844.97;;;4.40;63.65
76853;BME280;65825;52.232;10.566;2024-01-16T11:25:55;99843.50;;;4.66;62.74
76853;BME280;65825;52.232;10.566;2024-01-16T11:28:27;99843.28;;;4.78;62.80
76853;BME280;65825;52.232;10.566;2024-01-16T11:30:52;99843.75;;;4.95;62.41
76853;BME280;65825;52.232;10.566;2024-01-16T11:35:59;99831.50;;;4.58;62.62
76853;BME280;65825;52.232;10.566;2024-01-16T11:38:25;99839.81;;;4.76;62.02
76853;BME280;65825;52.232;10.566;2024-01-16T11:40:53;99825.59;;;4.89;62.02
76853;BME280;65825;52.232;10.566;2024-01-16T11:45:58;99832.44;;;4.54;61.50
76853;BME280;65825;52.232;10.566;2024-01-16T11:48:24;99838.16;;;4.72;61.77
76853;BME280;65825;52.232;10.566;2024-01-16T11:50:50;99828.06;;;4.95;61.44
76853;BME280;65825;52.232;10.566;2024-01-16T11:53:32;99832.09;;;5.08;60.63
76853;BME280;65825;52.232;10.566;2024-01-16T11:59:19;99830.66;;;5.32;60.06
76853;BME280;65825;52.232;10.566;2024-01-16T12:01:52;99809.63;;;5.00;59.96
76853;BME280;65825;52.232;10.566;2024-01-16T12:04:22;99836.47;;;5.09;60.10
76853;BME280;65825;52.232;10.566;2024-01-16T12:06:58;99824.97;;;5.50;59.72
76853;BME280;65825;52.232;10.566;2024-01-16T12:09:26;99833.47;;;5.59;59.37
76853;BME280;65825;52.232;10.566;2024-01-16T12:11:59;99827.91;;;5.38;59.70
76853;BME280;65825;52.232;10.566;2024-01-16T12:14:26;99834.06;;;6.04;58.16
76853;BME280;65825;52.232;10.566;2024-01-16T12:16:51;99821.53;;;5.48;58.42
76853;BME280;65825;52.232;10.566;2024-01-16T12:19:16;99822.78;;;5.67;58.26
76853;BME280;65825;52.232;10.566;2024-01-16T12:21:43;99822.06;;;5.62;58.16
76853;BME280;65825;52.232;10.566;2024-01-16T12:24:10;99815.34;;;5.50;58.65
76853;BME280;65825;52.232;10.566;2024-01-16T12:26:35;99825.31;;;5.38;58.92
76853;BME280;65825;52.232;10.566;2024-01-16T12:29:01;99807.19;;;4.92;59.83
76853;BME280;65825;52.232;10.566;2024-01-16T12:31:27;99816.16;;;5.19;59.76
76853;BME280;65825;52.232;10.566;2024-01-16T12:33:54;99814.69;;;5.07;60.66
76853;BME280;65825;52.232;10.566;2024-01-16T12:36:19;99831.75;;;4.87;60.50
76853;BME280;65825;52.232;10.566;2024-01-16T12:38:45;99799.19;;;4.62;60.83
76853;BME280;65825;52.232;10.566;2024-01-16T12:41:18;99819.63;;;4.83;61.34
76853;BME280;65825;52.232;10.566;2024-01-16T12:43:50;99812.00;;;4.72;61.67
76853;BME280;65825;52.232;10.566;2024-01-16T12:46:15;99819.34;;;4.55;61.74
76853;BME280;65825;52.232;10.566;2024-01-16T12:48:40;99817.78;;;4.48;61.96
76853;BME280;65825;52.232;10.566;2024-01-16T12:51:06;99798.75;;;4.42;62.22
76853;BME280;65825;52.232;10.566;2024-01-16T12:53:32;99823.03;;;4.47;61.56
76853;BME280;65825;52.232;10.566;2024-01-16T12:55:59;99820.91;;;4.64;61.92
76853;BME280;65825;52.232;10.566;2024-01-16T12:58:25;99819.41;;;4.11;63.18
76853;BME280;65825;52.232;10.566;2024-01-16T13:00:56;99821.94;;;4.14;63.20
76853;BME280;65825;52.232;10.566;2024-01-16T13:03:25;99820.41;;;4.47;63.00